Accueil
METAR-TAF:

METAR-TAF

Aéroports :

Koumac, Nouvelle-Calédonie

Aérodrome de Koumac

latitude: 20-34S, longitude: 164-17E, altitude: 23 m

METAR: absent

Heure: 00:44 (13:44 UTC)

Prévision

Le bulletin a été fait il y a 8 heures et 44 minutes, à 05:00 UTC
Prévision valable du 21 à 06 UTC au 22 à 06 UTC
Vent 15 kt de sud/sud-est
Visibilité 10 km ou plus
Quelques nuages à une hauteur de 4500 ft
Evoluant progressivement
du 21 à 09 UTC au 21 à 12 UTC
Vent 3 kt de direction variable
Evoluant progressivement
du 22 à 00 UTC au 22 à 03 UTC
Vent 14 kt de sud/sud-est

TAF: NWWK 210500Z 2106/2206 15015KT 9999 FEW045 BECMG 2109/2112 VRB03KT BECMG 2200/2203 15014KT

Observations et prévisions météorologiques de plus de 4000 aéroports (messages METAR et TAF).

Les stations disponibles sont représentées par des disques jaunes et rouges sur la carte.

Passer la souris dessus pour voir le nom de la station.

Cliquer dessus pour voir les observations et prévisions météorologiques.

Pour changer de carte: cliquez sur les boutons verts avec une croix noire pour zoomer, sur le bouton vert avec un tiret pour effectuer un zoom arrière, ou sur les flèches vertes pour les cartes adjacentes.


METAR-TAF: